createdAt,value
2018-01-23T00:02:22.244Z,1.24
2018-01-23T00:04:49.786Z,1.27
2018-01-23T00:07:18.058Z,1.20
2018-01-23T00:09:45.593Z,1.08
2018-01-23T00:12:13.174Z,1.00
2018-01-23T00:14:41.545Z,1.00
2018-01-23T00:17:09.085Z,1.22
2018-01-23T00:19:37.574Z,1.06
2018-01-23T00:22:05.154Z,0.90
2018-01-23T00:24:33.470Z,1.07
2018-01-23T00:27:01.042Z,0.92
2018-01-23T00:29:29.515Z,1.03
2018-01-23T00:31:57.094Z,0.96
2018-01-23T00:34:25.453Z,1.01
2018-01-23T00:36:52.998Z,1.11
2018-01-23T00:39:21.490Z,0.94
2018-01-23T00:41:49.816Z,1.09
2018-01-23T00:44:18.179Z,1.03
2018-01-23T00:46:45.777Z,0.99
2018-01-23T00:49:13.362Z,1.25
2018-01-23T00:51:40.942Z,1.18
2018-01-23T00:54:09.230Z,1.24
2018-01-23T00:56:37.518Z,1.11
2018-01-23T00:59:05.069Z,1.04
2018-01-23T01:01:33.462Z,1.11
2018-01-23T01:04:01.017Z,1.06
2018-01-23T01:06:28.582Z,1.02
2018-01-23T01:08:56.244Z,0.97
2018-01-23T01:11:23.938Z,0.99
2018-01-23T01:13:51.495Z,0.98
2018-01-23T01:16:19.047Z,0.91
2018-01-23T01:18:46.589Z,0.87
2018-01-23T01:21:14.969Z,0.97
2018-01-23T01:23:42.517Z,0.93
2018-01-23T01:26:10.062Z,1.06
2018-01-23T01:28:37.605Z,1.15
2018-01-23T01:31:06.030Z,1.25
2018-01-23T01:33:33.618Z,1.10
2018-01-23T01:36:01.161Z,1.02
2018-01-23T01:38:28.709Z,1.06
2018-01-23T01:40:56.253Z,1.04
2018-01-23T01:43:23.801Z,1.05
2018-01-23T01:45:52.154Z,1.22
2018-01-23T01:48:20.485Z,1.26
2018-01-23T01:50:48.801Z,1.21
2018-01-23T01:53:17.165Z,1.21
2018-01-23T01:55:44.710Z,1.16
2018-01-23T01:58:13.261Z,1.35
2018-01-23T02:00:40.854Z,1.45
2018-01-23T02:03:08.395Z,1.33
2018-01-23T02:05:35.937Z,1.51
2018-01-23T02:08:03.498Z,1.47
2018-01-23T02:10:31.090Z,1.22
2018-01-23T02:12:58.649Z,1.17
2018-01-23T02:15:26.201Z,1.22
2018-01-23T02:17:53.747Z,1.13
2018-01-23T02:20:21.338Z,1.09
2018-01-23T02:22:48.877Z,1.04
2018-01-23T02:25:17.326Z,0.98
2018-01-23T02:27:44.869Z,1.19
2018-01-23T02:30:12.414Z,1.29
2018-01-23T02:32:39.958Z,1.08
2018-01-23T02:35:07.495Z,1.04
2018-01-23T02:37:35.867Z,1.01
2018-01-23T02:40:04.302Z,1.09
2018-01-23T02:42:31.844Z,1.37
2018-01-23T02:45:00.281Z,1.49
2018-01-23T02:47:28.526Z,1.43
2018-01-23T02:49:56.837Z,1.17
2018-01-23T02:52:25.154Z,1.08
2018-01-23T02:54:53.400Z,1.28
2018-01-23T02:57:21.644Z,1.19
2018-01-23T02:59:49.918Z,1.04
2018-01-23T03:02:18.202Z,1.08
2018-01-23T03:04:45.760Z,1.02
2018-01-23T03:07:13.387Z,1.19
2018-01-23T03:09:40.970Z,1.46
2018-01-23T03:12:09.222Z,1.42
2018-01-23T03:14:37.571Z,1.26
2018-01-23T03:17:05.161Z,1.38
2018-01-23T03:19:33.423Z,1.54
2018-01-23T03:22:01.742Z,1.52
2018-01-23T03:24:30.097Z,1.50
2018-01-23T03:26:57.653Z,1.44
2018-01-23T03:29:26.093Z,1.40
2018-01-23T03:31:54.417Z,1.48
2018-01-23T03:34:21.956Z,1.61
2018-01-23T03:36:50.562Z,1.47
2018-01-23T03:39:18.122Z,1.58
2018-01-23T03:41:46.651Z,1.47
2018-01-23T03:44:14.195Z,1.31
2018-01-23T03:46:41.745Z,1.49
2018-01-23T03:49:09.286Z,1.39
2018-01-23T03:51:36.949Z,1.35
2018-01-23T03:54:04.486Z,1.23
2018-01-23T03:56:32.066Z,1.18
2018-01-23T03:58:59.746Z,1.15
2018-01-23T04:01:27.290Z,1.02
2018-01-23T04:03:54.841Z,1.13
2018-01-23T04:06:22.385Z,1.31
2018-01-23T04:08:50.695Z,1.18
2018-01-23T04:11:19.146Z,1.24
2018-01-23T04:13:46.839Z,1.28
2018-01-23T04:16:14.403Z,1.23
2018-01-23T04:18:41.981Z,1.22
2018-01-23T04:21:09.621Z,1.23
2018-01-23T04:23:38.140Z,1.44
2018-01-23T04:26:05.726Z,1.51
2018-01-23T04:28:33.326Z,1.48
2018-01-23T04:31:00.865Z,1.32
2018-01-23T04:33:28.422Z,1.21
2018-01-23T04:35:55.963Z,1.35
2018-01-23T04:38:23.504Z,1.47
2018-01-23T04:40:51.049Z,1.52
2018-01-23T04:43:18.690Z,1.30
2018-01-23T04:45:46.406Z,1.20
2018-01-23T04:48:13.944Z,1.15
2018-01-23T04:50:42.412Z,1.20
2018-01-23T04:53:10.965Z,1.17
2018-01-23T04:55:38.554Z,1.14
2018-01-23T04:58:06.205Z,1.08
2018-01-23T05:00:33.869Z,1.12
2018-01-23T05:03:01.432Z,1.00
2018-01-23T05:05:28.978Z,1.04
2018-01-23T05:07:56.526Z,1.18
2018-01-23T05:10:24.083Z,1.13
2018-01-23T05:12:51.751Z,1.36
2018-01-23T05:15:19.333Z,1.21
2018-01-23T05:17:46.872Z,1.17
2018-01-23T05:20:15.305Z,1.20
2018-01-23T05:22:43.757Z,1.37
2018-01-23T05:25:11.295Z,1.43
2018-01-23T05:27:38.834Z,1.43
2018-01-23T05:30:06.373Z,1.29
2018-01-23T05:32:34.650Z,1.38
2018-01-23T05:35:02.195Z,1.51
2018-01-23T05:37:29.743Z,1.46
2018-01-23T05:39:58.061Z,1.54
2018-01-23T05:42:25.647Z,1.47
2018-01-23T05:44:53.220Z,1.34
2018-01-23T05:47:20.807Z,1.39
2018-01-23T05:49:49.182Z,1.28
2018-01-23T05:52:16.872Z,1.22
2018-01-23T05:54:44.416Z,1.16
2018-01-23T05:57:11.974Z,1.19
2018-01-23T05:59:40.420Z,1.13
2018-01-23T06:02:08.670Z,1.23
2018-01-23T06:04:36.387Z,1.44
2018-01-23T06:07:03.976Z,1.51
2018-01-23T06:09:31.521Z,1.46
2018-01-23T06:11:59.115Z,1.25
2018-01-23T06:14:27.598Z,1.22
2018-01-23T06:16:55.905Z,1.14
2018-01-23T06:19:23.696Z,1.34
2018-01-23T06:21:51.224Z,1.32
2018-01-23T06:24:19.637Z,1.25
2018-01-23T06:26:47.182Z,1.15
2018-01-23T06:29:14.726Z,1.22
2018-01-23T06:31:43.090Z,1.41
2018-01-23T06:34:11.526Z,1.52
2018-01-23T06:36:39.810Z,1.49
2018-01-23T06:39:08.276Z,1.22
2018-01-23T06:41:35.948Z,1.23
2018-01-23T06:44:03.902Z,1.39
2018-01-23T06:46:32.366Z,1.36
2018-01-23T06:49:01.375Z,1.45
2018-01-23T06:51:28.926Z,1.52
2018-01-23T06:53:56.512Z,1.65
2018-01-23T06:56:24.161Z,1.32
2018-01-23T06:58:51.746Z,1.17
2018-01-23T07:01:19.337Z,1.09
2018-01-23T07:03:47.766Z,1.16
2018-01-23T07:06:15.314Z,1.24
2018-01-23T07:08:44.635Z,1.34
2018-01-23T07:11:13.073Z,1.43
2018-01-23T07:13:42.292Z,1.52
2018-01-23T07:16:10.636Z,1.37
2018-01-23T07:18:38.338Z,1.29
2018-01-23T07:21:07.818Z,1.24
2018-01-23T07:23:36.294Z,1.20
2018-01-23T07:26:04.142Z,1.31
2018-01-23T07:28:31.689Z,1.17
2018-01-23T07:30:59.436Z,1.15
2018-01-23T07:33:27.281Z,1.18
2018-01-23T07:35:54.825Z,1.25
2018-01-23T07:38:23.489Z,1.50
2018-01-23T07:40:51.149Z,1.42
2018-01-23T07:43:18.733Z,1.39
2018-01-23T07:45:46.329Z,1.66
2018-01-23T07:48:13.914Z,1.64
2018-01-23T07:50:41.707Z,1.66
2018-01-23T07:53:09.466Z,1.41
2018-01-23T07:55:37.317Z,1.64
2018-01-23T07:58:04.899Z,1.53
2018-01-23T08:00:33.238Z,1.43
2018-01-23T08:03:00.790Z,1.56
2018-01-23T08:05:29.335Z,1.49
2018-01-23T08:07:56.944Z,1.52
2018-01-23T08:10:24.605Z,1.58
2018-01-23T08:12:52.942Z,1.64
2018-01-23T08:15:21.321Z,1.57
2018-01-23T08:17:49.861Z,1.62
2018-01-23T08:20:17.496Z,1.61
2018-01-23T08:22:45.045Z,1.64
2018-01-23T08:25:14.618Z,1.63
2018-01-23T08:27:42.186Z,1.82
2018-01-23T08:30:14.770Z,2.02
2018-01-23T08:32:46.815Z,1.81
2018-01-23T08:35:14.773Z,1.84
2018-01-23T08:37:45.169Z,1.92
2018-01-23T08:40:15.116Z,1.91
2018-01-23T08:42:42.702Z,1.78
2018-01-23T08:45:11.067Z,1.87
2018-01-23T08:47:38.645Z,1.77
2018-01-23T08:50:06.194Z,1.85
2018-01-23T08:52:34.653Z,1.86
2018-01-23T08:55:03.038Z,2.04
2018-01-23T08:57:31.530Z,2.02
2018-01-23T09:00:00.715Z,2.02
2018-01-23T09:02:28.348Z,2.15
2018-01-23T09:04:56.950Z,2.02
2018-01-23T09:07:24.498Z,2.07
2018-01-23T09:09:52.087Z,2.35
2018-01-23T09:12:19.635Z,2.38
2018-01-23T09:14:47.206Z,2.52
2018-01-23T09:17:14.745Z,2.37
2018-01-23T09:19:42.329Z,2.49
2018-01-23T09:22:09.870Z,2.37
2018-01-23T09:24:37.436Z,2.38
2018-01-23T09:27:05.056Z,2.53
2018-01-23T09:29:32.607Z,2.53
2018-01-23T09:32:00.157Z,2.59
2018-01-23T09:34:27.714Z,2.63
2018-01-23T09:36:55.265Z,2.53
2018-01-23T09:39:22.915Z,2.53
2018-01-23T09:41:50.462Z,2.74
2018-01-23T09:44:18.700Z,2.72
2018-01-23T09:46:47.091Z,2.64
2018-01-23T09:49:15.508Z,2.56
2018-01-23T09:51:43.894Z,2.60
2018-01-23T09:54:11.495Z,2.82
2018-01-23T09:56:39.113Z,2.73
2018-01-23T09:59:06.680Z,2.64
2018-01-23T10:01:34.391Z,2.77
2018-01-23T10:04:01.975Z,2.60
2018-01-23T10:06:29.521Z,2.79
2018-01-23T10:08:57.069Z,2.94
2018-01-23T10:11:24.615Z,3.16
2018-01-23T10:13:52.215Z,2.90
2018-01-23T10:16:19.801Z,3.14
2018-01-23T10:18:47.341Z,2.93
2018-01-23T10:21:14.926Z,2.98
2018-01-23T10:23:43.258Z,2.73
2018-01-23T10:26:11.686Z,2.79
2018-01-23T10:28:39.997Z,2.78
2018-01-23T10:31:07.546Z,2.76
2018-01-23T10:33:36.022Z,2.86
2018-01-23T10:36:03.666Z,2.85
2018-01-23T10:38:31.221Z,2.87
2018-01-23T10:40:58.769Z,2.73
2018-01-23T10:43:26.424Z,2.84
2018-01-23T10:45:53.970Z,3.18
2018-01-23T10:48:22.346Z,3.08
2018-01-23T10:50:49.898Z,3.26
2018-01-23T10:53:17.731Z,3.40
2018-01-23T10:55:46.058Z,3.26
2018-01-23T10:58:14.583Z,3.42
2018-01-23T11:00:48.605Z,3.51
2018-01-23T11:03:16.189Z,3.42
2018-01-23T11:05:43.746Z,3.68
2018-01-23T11:08:11.374Z,3.80
2018-01-23T11:10:39.862Z,3.64
2018-01-23T11:13:07.450Z,3.55
2018-01-23T11:15:34.993Z,3.49
2018-01-23T11:18:02.586Z,3.43
2018-01-23T11:20:31.023Z,3.39
2018-01-23T11:22:59.269Z,3.37
2018-01-23T11:25:26.821Z,3.27
2018-01-23T11:27:55.149Z,3.35
2018-01-23T11:30:22.690Z,3.43
2018-01-23T11:32:51.137Z,3.60
2018-01-23T11:35:19.449Z,3.70
2018-01-23T11:37:47.817Z,3.59
2018-01-23T11:40:16.106Z,3.57
2018-01-23T11:42:44.330Z,3.47
2018-01-23T11:45:12.610Z,3.67
2018-01-23T11:47:40.160Z,3.69
2018-01-23T11:50:08.658Z,3.62
2018-01-23T11:52:36.934Z,3.55
2018-01-23T11:55:04.480Z,3.45
2018-01-23T11:57:32.059Z,3.68
2018-01-23T11:59:59.644Z,3.53
2018-01-23T12:02:28.054Z,3.41
2018-01-23T12:04:56.634Z,3.37
2018-01-23T12:07:24.209Z,3.48
2018-01-23T12:09:52.688Z,3.53
2018-01-23T12:12:21.162Z,3.69
2018-01-23T12:14:48.826Z,3.66
2018-01-23T12:17:17.287Z,3.64
2018-01-23T12:19:45.521Z,3.76
2018-01-23T12:22:13.065Z,3.79
2018-01-23T12:24:40.702Z,3.76
2018-01-23T12:27:09.194Z,3.82
2018-01-23T12:29:37.847Z,4.07
2018-01-23T12:32:05.433Z,4.08
2018-01-23T12:34:33.099Z,3.97
2018-01-23T12:37:01.583Z,3.94
2018-01-23T12:39:29.961Z,4.01
2018-01-23T12:41:57.501Z,3.98
2018-01-23T12:44:26.375Z,4.04
2018-01-23T12:46:54.869Z,4.09
2018-01-23T12:49:24.505Z,4.10
2018-01-23T12:51:53.391Z,4.09
2018-01-23T12:54:21.252Z,3.99
2018-01-23T12:56:48.901Z,4.02
2018-01-23T12:59:16.491Z,3.86
2018-01-23T13:01:44.150Z,3.95
2018-01-23T13:04:11.690Z,3.86
2018-01-23T13:06:39.270Z,3.90
2018-01-23T13:09:06.935Z,3.83
2018-01-23T13:11:34.482Z,3.99
2018-01-23T13:14:02.110Z,3.76
2018-01-23T13:16:29.713Z,4.05
2018-01-23T13:18:57.273Z,4.10
2018-01-23T13:21:24.827Z,3.94
2018-01-23T13:23:52.437Z,3.89
2018-01-23T13:26:19.981Z,3.78
2018-01-23T13:28:47.615Z,3.85
2018-01-23T13:31:15.276Z,3.78
2018-01-23T13:33:42.821Z,3.76
2018-01-23T13:36:10.405Z,3.77
2018-01-23T13:38:37.997Z,3.71
2018-01-23T13:41:06.350Z,3.72
2018-01-23T13:43:34.804Z,3.86
2018-01-23T13:46:02.347Z,3.74
2018-01-23T13:48:29.950Z,3.95
2018-01-23T13:50:57.494Z,3.80
2018-01-23T13:53:25.074Z,3.80
2018-01-23T13:55:52.661Z,3.79
2018-01-23T13:58:21.143Z,3.83
2018-01-23T14:00:48.691Z,3.79
2018-01-23T14:03:16.238Z,3.82
2018-01-23T14:05:44.493Z,3.88
2018-01-23T14:08:12.889Z,3.85
2018-01-23T14:10:41.373Z,3.86
2018-01-23T14:13:09.765Z,3.85
2018-01-23T14:15:38.343Z,3.82
2018-01-23T14:18:06.674Z,3.74
2018-01-23T14:20:34.220Z,3.63
2018-01-23T14:23:02.650Z,3.69
2018-01-23T14:25:31.110Z,3.82
2018-01-23T14:27:59.475Z,3.69
2018-01-23T14:30:27.086Z,3.87
2018-01-23T14:32:54.670Z,3.79
2018-01-23T14:35:22.361Z,3.90
2018-01-23T14:37:50.785Z,3.85
2018-01-23T14:40:18.449Z,3.80
2018-01-23T14:42:46.009Z,3.80
2018-01-23T14:45:13.649Z,3.77
2018-01-23T14:47:41.234Z,3.70
2018-01-23T14:50:09.601Z,3.76
2018-01-23T14:52:38.045Z,3.76
2018-01-23T14:55:06.376Z,3.78
2018-01-23T14:57:33.918Z,3.76
2018-01-23T15:00:02.270Z,3.73
2018-01-23T15:02:29.854Z,3.66
2018-01-23T15:04:57.717Z,3.81
2018-01-23T15:07:25.310Z,3.83
2018-01-23T15:09:52.966Z,3.79
2018-01-23T15:12:20.507Z,3.69
2018-01-23T15:14:48.089Z,3.66
2018-01-23T15:17:15.750Z,3.70
2018-01-23T15:19:43.405Z,3.64
2018-01-23T15:22:10.953Z,3.63
2018-01-23T15:24:38.545Z,3.60
2018-01-23T15:27:06.102Z,3.52
2018-01-23T15:29:33.691Z,3.50
2018-01-23T15:32:01.289Z,3.49
2018-01-23T15:34:29.769Z,3.49
2018-01-23T15:36:57.467Z,3.53
2018-01-23T15:39:25.019Z,3.48
2018-01-23T15:41:52.682Z,3.56
2018-01-23T15:44:20.250Z,3.52
2018-01-23T15:46:48.834Z,3.44
2018-01-23T15:49:17.181Z,3.47
2018-01-23T15:51:44.770Z,3.43
2018-01-23T15:54:13.106Z,3.43
2018-01-23T15:56:40.657Z,3.50
2018-01-23T15:59:08.204Z,3.53
2018-01-23T16:01:35.749Z,3.46
2018-01-23T16:04:04.166Z,3.38
2018-01-23T16:06:31.719Z,3.43
2018-01-23T16:09:00.292Z,3.44
2018-01-23T16:11:27.925Z,3.48
2018-01-23T16:13:55.595Z,3.45
2018-01-23T16:16:23.137Z,3.43
2018-01-23T16:18:50.692Z,3.40
2018-01-23T16:21:18.240Z,3.41
2018-01-23T16:23:45.790Z,3.51
2018-01-23T16:26:13.334Z,3.47
2018-01-23T16:28:40.970Z,3.51
2018-01-23T16:31:10.450Z,3.61
2018-01-23T16:33:38.789Z,3.54
2018-01-23T16:36:06.341Z,3.62
2018-01-23T16:38:33.971Z,3.58
2018-01-23T16:41:01.674Z,3.57
2018-01-23T16:43:29.338Z,3.49
2018-01-23T16:45:56.878Z,3.44
2018-01-23T16:48:24.429Z,3.39
2018-01-23T16:50:52.893Z,3.42
2018-01-23T16:53:21.207Z,3.43
2018-01-23T16:55:48.832Z,3.43
2018-01-23T16:58:16.381Z,3.48
2018-01-23T17:00:43.930Z,3.50
2018-01-23T17:03:11.597Z,3.45
2018-01-23T17:05:39.693Z,3.48
2018-01-23T17:08:07.245Z,3.48
2018-01-23T17:10:34.822Z,3.58
2018-01-23T17:13:02.368Z,3.62
2018-01-23T17:15:29.925Z,3.62
2018-01-23T17:17:57.476Z,3.65
2018-01-23T17:20:25.856Z,3.69
2018-01-23T17:22:54.416Z,3.64
2018-01-23T17:25:22.122Z,3.66
2018-01-23T17:27:49.673Z,3.83
2018-01-23T17:30:17.250Z,3.86
2018-01-23T17:32:44.914Z,3.72
2018-01-23T17:35:12.498Z,3.75
2018-01-23T17:37:40.054Z,3.73
2018-01-23T17:40:07.654Z,3.69
2018-01-23T17:42:35.975Z,3.71
2018-01-23T17:45:04.353Z,3.71
2018-01-23T17:47:31.954Z,3.67
2018-01-23T17:50:00.474Z,3.65
2018-01-23T17:52:28.018Z,3.60
2018-01-23T17:54:55.616Z,3.52
2018-01-23T17:57:23.168Z,3.63
2018-01-23T17:59:51.689Z,3.67
2018-01-23T18:02:19.234Z,3.51
2018-01-23T18:04:46.809Z,3.52
2018-01-23T18:07:15.173Z,3.51
2018-01-23T18:09:43.498Z,3.54
2018-01-23T18:12:11.098Z,3.41
2018-01-23T18:14:38.648Z,3.38
2018-01-23T18:17:07.143Z,3.46
2018-01-23T18:19:35.497Z,3.50
2018-01-23T18:22:03.644Z,3.55
2018-01-23T18:24:31.190Z,3.63
2018-01-23T18:27:01.222Z,3.70
2018-01-23T18:29:28.837Z,3.65
2018-01-23T18:31:56.403Z,3.68
2018-01-23T18:34:23.949Z,3.68
2018-01-23T18:36:51.530Z,3.74
2018-01-23T18:39:19.972Z,3.78
2018-01-23T18:41:48.457Z,3.74
2018-01-23T18:44:17.183Z,3.81
2018-01-23T18:46:47.091Z,3.83
2018-01-23T18:49:14.674Z,3.91
2018-01-23T18:51:42.326Z,3.84
2018-01-23T18:54:09.949Z,3.94
2018-01-23T18:56:37.534Z,4.00
2018-01-23T18:59:05.082Z,3.94
2018-01-23T19:01:33.487Z,4.02
2018-01-23T19:04:01.041Z,4.08
2018-01-23T19:06:28.594Z,4.08
2018-01-23T19:08:56.147Z,4.17
2018-01-23T19:11:23.905Z,4.39
2018-01-23T19:13:51.577Z,4.26
2018-01-23T19:16:19.146Z,4.32
2018-01-23T19:18:46.765Z,4.30
2018-01-23T19:21:14.317Z,4.35
2018-01-23T19:23:41.875Z,4.50
2018-01-23T19:26:09.538Z,4.40
2018-01-23T19:28:37.179Z,4.41
2018-01-23T19:31:04.814Z,4.44
2018-01-23T19:33:33.164Z,4.57
2018-01-23T19:36:01.768Z,4.51
2018-01-23T19:38:29.371Z,4.52
2018-01-23T19:40:56.914Z,4.43
2018-01-23T19:43:24.525Z,4.38
2018-01-23T19:45:52.987Z,4.36
2018-01-23T19:48:20.534Z,4.38
2018-01-23T19:50:48.185Z,4.38
2018-01-23T19:53:15.729Z,4.36
2018-01-23T19:55:43.274Z,4.42
2018-01-23T19:58:10.846Z,4.40
2018-01-23T20:00:38.394Z,4.41
2018-01-23T20:03:05.937Z,4.60
2018-01-23T20:05:33.530Z,4.60
2018-01-23T20:08:01.081Z,4.59
2018-01-23T20:10:28.666Z,4.56
2018-01-23T20:12:56.218Z,4.55
2018-01-23T20:15:24.798Z,4.54
2018-01-23T20:17:53.182Z,4.57
2018-01-23T20:20:20.726Z,4.57
2018-01-23T20:22:48.315Z,4.59
2018-01-23T20:25:15.866Z,4.69
2018-01-23T20:27:43.434Z,4.60
2018-01-23T20:30:10.979Z,4.69
2018-01-23T20:32:38.530Z,4.74
2018-01-23T20:35:06.074Z,4.76
2018-01-23T20:37:33.627Z,4.69
2018-01-23T20:40:01.171Z,4.68
2018-01-23T20:42:28.767Z,4.78
2018-01-23T20:44:56.518Z,4.76
2018-01-23T20:47:24.116Z,4.83
2018-01-23T20:49:51.666Z,4.80
2018-01-23T20:52:19.329Z,4.93
2018-01-23T20:54:47.790Z,4.92
2018-01-23T20:57:16.047Z,4.92
2018-01-23T20:59:44.573Z,4.90
2018-01-23T21:02:12.230Z,4.89
2018-01-23T21:04:39.794Z,4.86
2018-01-23T21:07:07.338Z,4.83
2018-01-23T21:09:36.042Z,5.00
2018-01-23T21:12:04.531Z,5.09
2018-01-23T21:14:34.005Z,5.05
2018-01-23T21:17:02.517Z,5.07
2018-01-23T21:19:30.138Z,5.05
2018-01-23T21:21:57.677Z,5.03
2018-01-23T21:24:25.300Z,5.04
2018-01-23T21:26:53.702Z,4.97
2018-01-23T21:29:22.153Z,5.07
2018-01-23T21:31:50.608Z,5.01
2018-01-23T21:34:18.190Z,5.03
2018-01-23T21:36:55.622Z,4.99
2018-01-23T21:39:23.250Z,5.01
2018-01-23T21:41:50.814Z,5.05
2018-01-23T21:44:18.480Z,5.13
2018-01-23T21:46:46.142Z,5.11
2018-01-23T21:49:13.809Z,5.15
2018-01-23T21:51:41.466Z,5.18
2018-01-23T21:54:09.020Z,5.20
2018-01-23T21:56:36.594Z,5.26
2018-01-23T21:59:04.251Z,5.23
2018-01-23T22:01:31.916Z,5.20
2018-01-23T22:03:59.568Z,5.23
2018-01-23T22:06:27.339Z,5.22
2018-01-23T22:08:55.837Z,5.17
2018-01-23T22:11:24.232Z,5.24
2018-01-23T22:13:51.870Z,5.24
2018-01-23T22:16:19.453Z,5.23
2018-01-23T22:18:47.001Z,5.20
2018-01-23T22:21:15.481Z,5.21
2018-01-23T22:23:44.053Z,5.25
2018-01-23T22:26:11.602Z,5.26
2018-01-23T22:28:39.144Z,5.35
2018-01-23T22:31:06.745Z,5.29
2018-01-23T22:33:34.492Z,5.31
2018-01-23T22:36:02.815Z,5.37
2018-01-23T22:38:31.132Z,5.30
2018-01-23T22:40:58.718Z,5.28
2018-01-23T22:43:26.281Z,5.33
2018-01-23T22:45:53.834Z,5.31
2018-01-23T22:48:21.401Z,5.34
2018-01-23T22:50:48.961Z,5.34
2018-01-23T22:53:16.506Z,5.36
2018-01-23T22:55:44.754Z,5.33
2018-01-23T22:58:12.308Z,5.36
2018-01-23T23:00:39.853Z,5.30
2018-01-23T23:03:07.394Z,5.35
2018-01-23T23:05:34.946Z,5.39
2018-01-23T23:08:02.603Z,5.31
2018-01-23T23:10:30.141Z,5.39
2018-01-23T23:12:57.682Z,5.43
2018-01-23T23:15:25.226Z,5.34
2018-01-23T23:17:53.585Z,5.32
2018-01-23T23:20:21.125Z,5.29
2018-01-23T23:22:49.602Z,5.31
2018-01-23T23:25:17.925Z,5.33
2018-01-23T23:27:46.250Z,5.39
2018-01-23T23:30:13.791Z,5.35
2018-01-23T23:32:41.342Z,5.37
2018-01-23T23:35:09.670Z,5.36
2018-01-23T23:37:37.997Z,5.46
2018-01-23T23:40:05.586Z,5.44
2018-01-23T23:42:33.979Z,5.42
2018-01-23T23:45:01.520Z,5.36
2018-01-23T23:47:29.062Z,5.41
2018-01-23T23:49:56.606Z,5.41
2018-01-23T23:52:24.223Z,5.39
2018-01-23T23:54:51.762Z,5.36
2018-01-23T23:57:19.346Z,5.42
2018-01-23T23:59:46.882Z,5.47
